Time;durP1;ratioP1;P1;durP2;ratioP2;P2;SDS_P1;SDS_P2;PMS_P1;PMS_P2;Temp;Humidity;BMP_temperature;BMP_pressure;BME280_temperature;BME280_humidity;BME280_pressure;Samples;Min_cycle;Max_cycle;Signal;HPM_P1;HPM_P2
2022/03/22 00:04:23;;;;;;;3.38;2.80;;;;;;;16.38;50.67;97891.28;10396105;28;20339;-22
2022/03/22 00:09:24;;;;;;;4.25;2.75;;;;;;;16.41;50.33;97884.66;10388125;28;20040;-23
2022/03/22 00:14:25;;;;;;;4.23;2.33;;;;;;;16.39;50.54;97893.88;10384183;28;20481;-22
2022/03/22 00:19:26;;;;;;;3.40;2.83;;;;;;;16.34;50.64;97885.25;10391892;28;20504;-23
2022/03/22 00:24:26;;;;;;;3.03;2.33;;;;;;;16.38;50.07;97887.06;10382387;28;20083;-22
2022/03/22 00:29:27;;;;;;;3.92;2.13;;;;;;;16.40;50.46;97885.47;10391033;28;20153;-22
2022/03/22 00:34:28;;;;;;;4.72;2.50;;;;;;;16.41;50.33;97889.69;10388823;28;20029;-22
2022/03/22 00:39:28;;;;;;;3.53;3.10;;;;;;;16.43;50.72;97884.66;10391391;28;20037;-22
2022/03/22 00:44:30;;;;;;;5.20;2.40;;;;;;;16.45;50.83;97878.00;10383731;28;20033;-22
2022/03/22 00:49:33;;;;;;;5.07;2.37;;;;;;;16.45;50.92;97881.38;10380329;28;20428;-23
2022/03/22 00:54:35;;;;;;;4.20;2.97;;;;;;;16.41;50.28;97886.31;10383797;28;20034;-22
2022/03/22 01:04:56;;;;;;;3.05;2.40;;;;;;;16.42;50.47;97877.91;10391739;28;20033;-22
2022/03/22 01:09:56;;;;;;;3.40;2.20;;;;;;;16.39;50.44;97876.16;10385606;28;20037;-21
2022/03/22 01:14:56;;;;;;;2.73;2.43;;;;;;;16.38;50.21;97866.84;10383295;28;20034;-22
2022/03/22 01:19:58;;;;;;;3.13;2.20;;;;;;;16.40;50.53;97864.38;10386880;28;20303;-22
2022/03/22 01:24:59;;;;;;;2.30;2.10;;;;;;;16.38;50.12;97866.84;10384670;28;20291;-22
2022/03/22 01:30:00;;;;;;;3.58;2.65;;;;;;;16.41;50.25;97869.47;10386476;28;20399;-22
2022/03/22 01:35:01;;;;;;;5.60;2.30;;;;;;;16.39;50.33;97865.19;10385936;28;20034;-22
2022/03/22 01:40:04;;;;;;;2.85;1.92;;;;;;;16.40;50.22;97865.25;10382575;28;20040;-22
2022/03/22 01:45:06;;;;;;;2.63;2.40;;;;;;;16.40;50.33;97860.19;10386086;28;20040;-22
2022/03/22 01:50:10;;;;;;;4.07;2.60;;;;;;;16.39;50.96;97853.44;10380155;28;20045;-22
2022/03/22 01:55:16;;;;;;;3.25;2.28;;;;;;;16.45;50.67;97858.63;10391410;28;20057;-22
2022/03/22 02:00:19;;;;;;;3.60;2.70;;;;;;;16.44;50.81;97856.91;10390988;28;20037;-22
2022/03/22 02:10:39;;;;;;;2.88;2.25;;;;;;;16.40;49.98;97852.59;10387934;28;20573;-22
2022/03/22 02:15:39;;;;;;;2.97;2.33;;;;;;;16.39;50.13;97852.56;10394660;28;20113;-22
2022/03/22 02:20:40;;;;;;;2.70;1.93;;;;;;;16.36;50.36;97848.25;10390267;28;20053;-23
2022/03/22 02:25:40;;;;;;;2.47;2.28;;;;;;;16.39;50.59;97850.91;10390109;28;20659;-22
2022/03/22 02:30:43;;;;;;;2.80;2.30;;;;;;;16.36;50.32;97842.34;10385517;28;20100;-22
2022/03/22 02:35:44;;;;;;;2.60;1.95;;;;;;;16.36;50.27;97852.44;10389342;28;20022;-23
2022/03/22 02:40:46;;;;;;;3.97;2.43;;;;;;;16.36;50.02;97850.75;10388753;28;20088;-22
2022/03/22 02:45:46;;;;;;;2.60;1.90;;;;;;;16.36;50.56;97853.28;10394021;28;20380;-22
2022/03/22 02:50:47;;;;;;;5.33;1.83;;;;;;;16.35;50.56;97849.06;10384598;28;20030;-22
2022/03/22 02:55:47;;;;;;;3.40;1.97;;;;;;;16.37;50.09;97847.44;10390552;28;20474;-23
2022/03/22 03:00:48;;;;;;;3.23;2.13;;;;;;;16.39;50.34;97850.91;10389354;28;20478;-22
2022/03/22 03:05:49;;;;;;;3.38;2.25;;;;;;;16.43;50.62;97844.22;10395771;28;20034;-22
2022/03/22 03:10:50;;;;;;;3.97;2.58;;;;;;;16.44;50.32;97851.84;10387794;28;20045;-23
2022/03/22 03:15:50;;;;;;;2.63;2.20;;;;;;;16.41;50.32;97856.84;10393698;28;20055;-23
2022/03/22 03:20:51;;;;;;;3.10;2.20;;;;;;;16.37;50.16;97860.09;10382539;28;20041;-22
2022/03/22 03:25:52;;;;;;;2.57;2.20;;;;;;;16.33;50.19;97853.22;10394125;28;20029;-22
2022/03/22 03:30:52;;;;;;;2.05;1.85;;;;;;;16.38;50.31;97866.84;10385335;28;20094;-22
2022/03/22 03:35:54;;;;;;;3.22;2.13;;;;;;;16.31;50.17;97859.91;10380944;28;20026;-22
2022/03/22 03:51:35;;;;;;;2.60;2.40;;;;;;;16.35;49.95;97868.44;10382222;28;20128;-23
2022/03/22 03:56:36;;;;;;;2.78;2.17;;;;;;;16.35;50.58;97879.38;10389655;28;20080;-22
2022/03/22 04:01:36;;;;;;;3.00;2.60;;;;;;;16.36;50.31;97888.66;10385476;28;20038;-22
2022/03/22 04:06:36;;;;;;;2.83;2.00;;;;;;;16.36;50.02;97892.88;10399076;28;20301;-22
2022/03/22 04:11:38;;;;;;;3.50;2.17;;;;;;;16.37;50.18;97895.47;10388463;28;20563;-22
2022/03/22 04:16:39;;;;;;;2.88;2.13;;;;;;;16.43;50.48;97894.78;10389025;28;20061;-22
2022/03/22 04:21:40;;;;;;;2.78;2.20;;;;;;;16.44;50.56;97899.88;10383135;28;20057;-22
2022/03/22 04:26:43;;;;;;;2.17;1.90;;;;;;;16.37;50.42;97895.47;10388579;28;20061;-22
2022/03/22 04:37:02;;;;;;;2.88;1.88;;;;;;;16.35;50.17;97907.19;10380224;28;20120;-22
2022/03/22 04:42:04;;;;;;;2.10;1.85;;;;;;;16.37;50.28;97903.06;10385652;28;20132;-22
2022/03/22 04:47:05;;;;;;;2.25;2.05;;;;;;;16.42;49.63;97914.16;10380150;28;20489;-21
2022/03/22 04:57:25;;;;;;;2.40;1.95;;;;;;;16.39;49.95;97903.97;10380260;28;20037;-22
2022/03/22 05:02:26;;;;;;;3.05;1.92;;;;;;;16.40;49.90;97910.75;10395209;28;20040;-22
2022/03/22 05:07:27;;;;;;;3.57;2.17;;;;;;;16.44;50.14;97915.03;10382471;28;20030;-22
2022/03/22 05:12:27;;;;;;;2.47;2.00;;;;;;;16.51;50.12;97914.41;10383821;28;20036;-24
2022/03/22 05:17:27;;;;;;;2.20;1.90;;;;;;;16.51;50.19;97923.63;10384585;28;20288;-23
2022/03/22 05:22:28;;;;;;;3.17;2.13;;;;;;;16.50;50.15;97921.94;10378075;28;20042;-22
2022/03/22 05:27:28;;;;;;;2.83;2.00;;;;;;;16.49;50.15;97931.19;10388963;28;20040;-22
2022/03/22 05:32:29;;;;;;;2.53;2.33;;;;;;;16.50;50.22;97927.84;10386655;28;20079;-22
2022/03/22 05:37:29;;;;;;;2.83;2.13;;;;;;;16.46;50.55;97931.09;10381642;28;20029;-22
2022/03/22 05:42:30;;;;;;;5.07;2.53;;;;;;;16.43;49.24;97930.16;10382865;28;20045;-21
2022/03/22 05:47:30;;;;;;;6.35;2.95;;;;;;;16.49;49.43;97936.25;10386804;28;20030;-22
2022/03/22 05:52:30;;;;;;;10.90;5.20;;;;;;;16.46;48.42;97940.38;10374891;28;20033;-23
2022/03/22 05:57:31;;;;;;;8.10;3.00;;;;;;;16.42;49.03;97936.91;10391065;28;20113;-22
2022/03/22 06:02:31;;;;;;;6.20;2.60;;;;;;;16.46;49.17;97941.22;10380266;28;20417;-21
2022/03/22 06:07:31;;;;;;;4.40;2.53;;;;;;;16.46;49.54;97946.28;10394850;28;20034;-23
2022/03/22 06:12:40;;;;;;;7.55;3.45;;;;;;;16.46;50.06;97943.75;10382850;28;20100;-22
2022/03/22 06:18:03;;;;;;;6.22;3.08;;;;;;;16.47;49.75;97940.44;10384556;28;20102;-22
2022/03/22 06:23:05;;;;;;;7.13;3.67;;;;;;;16.46;50.18;97951.31;10379855;28;20038;-22
2022/03/22 06:28:09;;;;;;;6.05;2.75;;;;;;;16.45;50.08;97962.25;10385265;28;20069;-22
2022/03/22 06:33:13;;;;;;;7.35;2.92;;;;;;;16.43;49.93;97951.25;10386927;28;20034;-21
2022/03/22 06:38:13;;;;;;;8.82;5.25;;;;;;;15.97;44.36;97958.31;10380290;28;20041;-21
2022/03/22 06:43:15;;;;;;;11.45;5.25;;;;;;;16.26;46.38;97962.53;10382322;28;20462;-21
2022/03/22 06:48:16;;;;;;;10.35;3.90;;;;;;;16.34;48.40;97967.78;10392098;28;20037;-24
2022/03/22 06:53:17;;;;;;;6.30;3.72;;;;;;;16.35;48.72;97962.78;10386720;28;20038;-22
2022/03/22 06:58:21;;;;;;;4.95;3.38;;;;;;;16.38;48.75;97975.53;10393198;28;20029;-22
2022/03/22 07:03:21;;;;;;;8.35;3.85;;;;;;;16.39;49.33;97969.69;10392151;28;20034;-23
2022/03/22 07:08:23;;;;;;;4.83;3.37;;;;;;;16.39;48.84;97974.75;10398383;28;20041;-22
2022/03/22 07:13:23;;;;;;;5.00;3.42;;;;;;;16.42;49.31;97981.53;10388015;28;20026;-22
2022/03/22 07:18:24;;;;;;;3.80;3.00;;;;;;;16.42;49.31;97982.41;10388461;28;20306;-21
2022/03/22 07:23:24;;;;;;;6.00;3.30;;;;;;;16.42;49.63;97982.41;10385339;28;20358;-21
2022/03/22 07:28:26;;;;;;;6.77;3.23;;;;;;;16.43;49.43;97981.56;10387128;28;20034;-22
2022/03/22 07:33:27;;;;;;;4.70;2.67;;;;;;;16.45;49.66;97977.41;10390415;28;20064;-22
2022/03/22 07:38:27;;;;;;;5.18;2.78;;;;;;;16.45;49.72;97979.09;10384664;28;20128;-23
2022/03/22 07:43:29;;;;;;;4.38;2.78;;;;;;;16.44;49.27;97983.28;10381635;28;20106;-23
2022/03/22 07:48:31;;;;;;;4.32;3.08;;;;;;;16.44;49.43;97988.34;10388891;28;20049;-23
2022/03/22 07:53:31;;;;;;;6.77;2.90;;;;;;;16.47;49.56;97992.63;10377117;28;20026;-23
2022/03/22 07:58:31;;;;;;;5.07;3.10;;;;;;;16.46;49.64;97991.75;10387314;28;20037;-23
2022/03/22 08:03:32;;;;;;;4.20;3.20;;;;;;;16.44;49.50;97990.88;10392312;28;20046;-22
2022/03/22 08:08:32;;;;;;;5.27;2.90;;;;;;;16.43;49.20;97991.69;10393709;28;20080;-22
2022/03/22 08:13:34;;;;;;;3.65;2.90;;;;;;;16.41;49.67;97992.47;10381729;28;20034;-22
2022/03/22 08:18:34;;;;;;;3.67;3.22;;;;;;;16.43;49.92;97996.75;10384805;28;20068;-23
2022/03/22 08:23:35;;;;;;;4.03;2.43;;;;;;;16.40;49.72;97986.56;10381519;28;20046;-22
2022/03/22 08:28:36;;;;;;;5.75;3.00;;;;;;;16.42;49.43;97984.94;10387111;28;20041;-22
2022/03/22 08:33:36;;;;;;;2.70;2.50;;;;;;;16.42;49.50;97984.94;10388968;28;20034;-22
2022/03/22 08:38:36;;;;;;;3.17;2.67;;;;;;;16.41;49.38;97980.69;10381857;28;20037;-22
2022/03/22 08:43:37;;;;;;;3.97;2.97;;;;;;;16.43;49.81;97985.75;10383745;28;20033;-22
2022/03/22 08:48:37;;;;;;;2.97;2.67;;;;;;;16.41;49.45;97978.16;10386722;28;20295;-22
2022/03/22 08:53:38;;;;;;;4.37;2.80;;;;;;;16.41;49.31;97984.88;10382004;28;20127;-22
2022/03/22 08:58:38;;;;;;;6.28;2.88;;;;;;;16.41;49.94;97975.63;10386686;28;20578;-22
2022/03/22 09:03:39;;;;;;;5.13;2.47;;;;;;;16.44;49.87;97978.22;10388635;28;20060;-22
2022/03/22 09:08:41;;;;;;;5.00;2.80;;;;;;;16.44;49.96;97972.34;10385236;28;20060;-22
2022/03/22 09:13:41;;;;;;;3.33;2.67;;;;;;;16.43;49.76;97971.47;10382190;28;20037;-22
2022/03/22 09:18:43;;;;;;;3.60;2.70;;;;;;;16.43;49.95;97971.47;10385285;28;20048;-21
2022/03/22 09:23:44;;;;;;;3.38;2.70;;;;;;;16.41;49.60;97978.16;10386408;28;20296;-22
2022/03/22 09:28:44;;;;;;;3.78;2.97;;;;;;;16.40;49.95;97978.97;10386548;28;20493;-22
2022/03/22 09:33:45;;;;;;;2.83;2.53;;;;;;;16.38;50.07;97973.00;10383946;28;20037;-22
2022/03/22 09:38:46;;;;;;;2.60;2.33;;;;;;;16.37;49.57;97968.75;10380158;28;20026;-22
2022/03/22 09:43:48;;;;;;;3.00;2.70;;;;;;;16.39;49.50;97968.81;10379865;28;20289;-22
2022/03/22 09:48:49;;;;;;;3.08;2.70;;;;;;;16.38;49.95;97967.94;10362480;28;20099;-21
2022/03/22 09:53:51;;;;;;;3.22;2.60;;;;;;;16.37;49.48;97960.34;10380174;28;20075;-22
2022/03/22 09:58:52;;;;;;;4.20;3.03;;;;;;;16.37;49.38;97963.72;10382963;28;20052;-22
2022/03/22 10:03:57;;;;;;;2.83;2.10;;;;;;;16.36;49.70;97953.53;10390614;28;20049;-22
2022/03/22 10:08:58;;;;;;;2.67;2.47;;;;;;;16.37;50.15;97961.19;10380615;28;20029;-22
2022/03/22 10:14:00;;;;;;;3.38;2.50;;;;;;;16.41;50.19;97947.84;10381644;28;20032;-22
2022/03/22 10:19:01;;;;;;;4.15;2.88;;;;;;;16.44;50.23;97963.06;10386832;28;20041;-23
2022/03/22 10:24:02;;;;;;;3.77;2.37;;;;;;;16.42;50.25;97949.53;10391467;28;20401;-22
2022/03/22 10:29:06;;;;;;;3.15;2.85;;;;;;;16.41;50.11;97960.47;10392912;28;20061;-21
2022/03/22 10:34:09;;;;;;;3.75;2.80;;;;;;;16.37;50.07;97948.53;10383672;28;20076;-22
2022/03/22 10:39:11;;;;;;;2.95;2.58;;;;;;;16.36;50.21;97949.31;10386275;28;20034;-23
2022/03/22 10:44:14;;;;;;;3.53;2.92;;;;;;;16.35;50.28;97946.78;10384248;28;20038;-23
2022/03/22 10:49:17;;;;;;;3.95;2.58;;;;;;;16.31;50.18;97937.38;10395189;28;20448;-22
2022/03/22 10:54:19;;;;;;;3.30;2.72;;;;;;;16.32;50.22;97932.38;10374557;28;20465;-22
2022/03/22 10:59:23;;;;;;;3.88;2.78;;;;;;;16.32;50.18;97932.38;10383890;28;20592;-22
2022/03/22 11:04:23;;;;;;;3.05;2.42;;;;;;;16.32;50.59;97934.91;10398796;28;20036;-23
2022/03/22 11:09:25;;;;;;;2.95;2.65;;;;;;;16.37;50.13;97924.97;10391684;28;20040;-22
2022/03/22 11:14:27;;;;;;;3.90;2.67;;;;;;;16.40;50.19;97923.38;10385795;28;20060;-21
2022/03/22 11:19:27;;;;;;;2.70;2.20;;;;;;;16.45;49.87;97931.09;10393494;28;20305;-23
2022/03/22 11:24:28;;;;;;;3.03;2.72;;;;;;;16.45;50.49;97923.50;10388822;28;20045;-22
2022/03/22 11:29:30;;;;;;;5.57;4.55;;;;;;;16.39;49.59;97911.56;10388408;28;20494;-22
2022/03/22 11:34:30;;;;;;;3.53;2.58;;;;;;;16.43;50.02;97913.34;10388635;28;20104;-22
2022/03/22 11:45:08;;;;;;;2.95;2.42;;;;;;;16.43;50.03;97905.75;10385474;28;20064;-22
2022/03/22 11:50:13;;;;;;;4.57;2.95;;;;;;;16.39;50.19;97903.97;10379518;28;20493;-22
2022/03/22 11:55:25;;;;;;;6.57;2.70;;;;;;;16.40;49.94;97894.69;10383883;28;20022;-23
2022/03/22 12:01:00;;;;;;;8.30;3.35;;;;;;;16.45;50.10;97894.00;10382945;28;20051;-22
2022/03/22 12:06:13;;;;;;;5.55;4.05;;;;;;;16.49;50.24;97893.28;10379244;28;20118;-22
2022/03/22 12:11:16;;;;;;;7.28;4.43;;;;;;;16.51;50.11;97889.13;10393051;28;20501;-23
2022/03/22 12:16:16;;;;;;;7.80;4.50;;;;;;;16.52;49.78;97890.81;10383737;28;20033;-22
2022/03/22 12:21:19;;;;;;;13.32;7.53;;;;;;;16.50;49.75;97881.47;10381615;28;20029;-22
2022/03/22 12:26:19;;;;;;;13.13;6.57;;;;;;;16.53;50.36;97881.59;10386279;28;20038;-22
2022/03/22 12:31:21;;;;;;;14.37;5.77;;;;;;;16.54;49.76;97880.75;10382333;28;20478;-22
2022/03/22 12:36:22;;;;;;;18.98;8.32;;;;;;;16.45;51.02;97858.63;10376077;28;20441;-22
2022/03/22 12:41:24;;;;;;;16.65;6.40;;;;;;;16.54;50.42;97863.91;10379212;28;20057;-22
2022/03/22 12:46:25;;;;;;;17.08;6.80;;;;;;;16.56;50.30;97857.25;10379108;28;20049;-21
2022/03/22 12:51:26;;;;;;;6.80;3.97;;;;;;;16.54;49.86;97846.22;10380785;28;20501;-22
2022/03/22 12:56:26;;;;;;;20.13;5.97;;;;;;;16.53;50.83;97846.19;10382437;28;20053;-23
2022/03/22 13:01:38;;;;;;;19.13;7.63;;;;;;;16.53;50.89;97836.09;10383522;28;20136;-21
2022/03/22 13:06:39;;;;;;;21.40;6.35;;;;;;;16.51;50.66;97830.97;10386005;28;20030;-23
2022/03/22 13:11:40;;;;;;;12.60;6.18;;;;;;;16.49;50.33;97824.16;10392795;28;20041;-23
2022/03/22 13:16:41;;;;;;;15.27;5.90;;;;;;;16.48;50.71;97823.34;10386966;28;20022;-23
2022/03/22 13:21:41;;;;;;;15.13;6.82;;;;;;;16.49;50.58;97819.09;10376564;28;20034;-22
2022/03/22 13:27:02;;;;;;;12.93;5.17;;;;;;;16.47;50.57;97815.69;10388870;28;20215;-22
2022/03/22 13:32:05;;;;;;;11.25;5.72;;;;;;;16.47;51.10;97810.66;10376079;28;20045;-23
2022/03/22 13:37:11;;;;;;;9.38;6.13;;;;;;;16.45;50.60;97808.06;10382493;28;20030;-23
2022/03/22 13:42:13;;;;;;;13.90;6.32;;;;;;;16.46;50.94;97817.34;10375404;28;20038;-22
2022/03/22 13:47:32;;;;;;;19.13;6.45;;;;;;;16.53;51.42;97805.75;10372223;28;20042;-22
2022/03/22 13:52:36;;;;;;;22.20;7.00;;;;;;;16.53;51.56;97796.47;10383043;28;20038;-22
2022/03/22 13:57:36;;;;;;;11.95;6.00;;;;;;;16.48;51.41;97790.47;10388532;28;20029;-21
2022/03/22 14:02:37;;;;;;;11.73;6.88;;;;;;;16.46;51.04;97794.59;10385424;28;20394;-21
2022/03/22 14:07:37;;;;;;;10.55;5.18;;;;;;;16.44;50.65;97786.13;10384731;28;20486;-22
2022/03/22 14:12:38;;;;;;;12.77;5.95;;;;;;;16.44;51.04;97778.56;10393718;28;20029;-22
2022/03/22 14:17:38;;;;;;;10.57;4.97;;;;;;;16.44;50.96;97780.25;10393767;28;20021;-22
2022/03/22 14:22:41;;;;;;;9.48;5.72;;;;;;;16.32;50.77;97763.06;10392351;28;20064;-22
2022/03/22 14:27:42;;;;;;;11.32;4.90;;;;;;;16.44;51.21;97781.09;10394402;28;20092;-22
2022/03/22 14:32:49;;;;;;;7.60;4.32;;;;;;;16.43;51.03;97771.78;10390803;28;20033;-22
2022/03/22 14:37:50;;;;;;;7.80;5.03;;;;;;;16.44;50.98;97762.56;10401300;28;20562;-22
2022/03/22 14:42:51;;;;;;;7.37;4.50;;;;;;;16.42;50.88;97759.97;10389496;28;20086;-22
2022/03/22 14:47:53;;;;;;;9.27;5.35;;;;;;;16.44;50.98;97760.03;10390690;28;20465;-22
2022/03/22 15:03:34;;;;;;;8.95;4.93;;;;;;;16.52;51.63;97749.25;10391988;28;20048;-22
2022/03/22 15:08:34;;;;;;;8.82;5.25;;;;;;;16.46;51.32;97744.06;10391066;28;20044;-22
2022/03/22 15:13:35;;;;;;;8.93;5.20;;;;;;;16.44;51.32;97740.66;10371008;28;20109;-22
2022/03/22 15:18:36;;;;;;;10.40;5.00;;;;;;;16.43;51.50;97738.94;10391222;28;20040;-22
2022/03/22 15:23:38;;;;;;;6.88;4.28;;;;;;;16.43;51.31;97738.94;10380417;28;20498;-22
2022/03/22 15:28:39;;;;;;;8.45;4.70;;;;;;;16.42;51.38;97732.19;10394428;28;20464;-22
2022/03/22 15:33:39;;;;;;;7.82;4.32;;;;;;;16.42;51.81;97737.22;10387677;28;20026;-22
2022/03/22 15:38:40;;;;;;;8.95;4.88;;;;;;;16.43;51.21;97731.34;10386835;28;20045;-22
2022/03/22 15:43:41;;;;;;;6.13;3.95;;;;;;;16.41;50.88;97725.41;10387061;28;20034;-22
2022/03/22 15:48:42;;;;;;;7.03;4.40;;;;;;;16.40;51.16;97733.81;10388802;28;20030;-22
2022/03/22 15:53:43;;;;;;;10.43;4.15;;;;;;;16.42;50.93;97716.16;10379693;28;20030;-23
2022/03/22 15:58:43;;;;;;;7.55;4.00;;;;;;;16.41;50.91;97715.31;10390235;28;20034;-22
2022/03/22 16:03:43;;;;;;;7.22;3.80;;;;;;;16.41;51.85;97722.88;10383569;28;20045;-22
2022/03/22 16:08:44;;;;;;;7.97;3.90;;;;;;;16.49;51.97;97716.34;10388865;28;20025;-22
2022/03/22 16:13:46;;;;;;;6.93;5.00;;;;;;;16.53;51.75;97723.16;10382873;28;20673;-22
2022/03/22 16:18:47;;;;;;;6.00;4.20;;;;;;;16.47;51.58;97714.59;10386941;28;20592;-22
2022/03/22 16:23:51;;;;;;;7.13;4.88;;;;;;;16.43;51.33;97715.31;10383743;28;20033;-22
2022/03/22 16:28:54;;;;;;;7.57;3.97;;;;;;;16.39;51.09;97719.47;10389628;28;20041;-22
2022/03/22 16:39:26;;;;;;;5.32;3.55;;;;;;;16.41;50.88;97730.47;10390029;28;20120;-23
2022/03/22 16:44:32;;;;;;;5.25;3.45;;;;;;;16.41;51.65;97735.53;10383907;28;20497;-22
2022/03/22 16:49:36;;;;;;;5.33;4.00;;;;;;;16.43;51.65;97733.00;10383253;28;20050;-22
2022/03/22 16:54:36;;;;;;;5.70;3.60;;;;;;;16.48;51.29;97737.38;10385914;28;20030;-22
2022/03/22 16:59:37;;;;;;;6.70;4.00;;;;;;;16.47;50.24;97742.41;10386754;28;20133;-21
2022/03/22 17:04:39;;;;;;;5.13;3.92;;;;;;;16.46;50.28;97744.06;10394383;28;20295;-22
2022/03/22 17:09:39;;;;;;;10.80;5.50;;;;;;;16.47;51.08;97745.78;10381641;28;20629;-22
2022/03/22 17:14:39;;;;;;;4.53;3.10;;;;;;;16.48;50.67;97744.09;10383724;28;20036;-21
2022/03/22 17:19:40;;;;;;;11.57;5.03;;;;;;;16.56;52.73;97756.13;10384356;28;20038;-22
2022/03/22 17:24:40;;;;;;;12.03;4.80;;;;;;;16.57;52.86;97757.81;10386191;28;20034;-21
2022/03/22 17:29:41;;;;;;;6.75;3.75;;;;;;;16.53;51.98;97755.19;10386420;28;20038;-22
2022/03/22 17:34:42;;;;;;;9.43;4.25;;;;;;;16.51;51.84;97766.91;10381521;28;20112;-22
2022/03/22 17:39:43;;;;;;;9.87;3.70;;;;;;;16.48;50.96;97770.25;10388667;28;20490;-22
2022/03/22 17:44:44;;;;;;;8.55;3.67;;;;;;;16.46;51.14;97768.50;10383401;28;20041;-22
2022/03/22 17:49:45;;;;;;;9.25;4.13;;;;;;;16.47;51.27;97781.19;10383345;28;20053;-22
2022/03/22 17:54:46;;;;;;;6.70;3.45;;;;;;;16.46;51.21;97776.91;10371801;28;20030;-22
2022/03/22 17:59:46;;;;;;;6.55;3.70;;;;;;;16.47;51.53;97780.31;10372742;28;20513;-23
2022/03/22 18:04:47;;;;;;;4.80;3.40;;;;;;;16.48;50.67;97782.88;10378373;28;20029;-22
2022/03/22 18:09:48;;;;;;;4.50;2.97;;;;;;;16.44;50.84;97791.19;10381577;28;20657;-22
2022/03/22 18:14:48;;;;;;;8.40;3.20;;;;;;;16.45;51.37;97792.91;10381069;28;20030;-22
2022/03/22 18:19:48;;;;;;;11.40;5.00;;;;;;;16.54;53.63;97798.19;10370435;28;20034;-22
2022/03/22 18:24:50;;;;;;;14.15;5.18;;;;;;;16.37;54.68;97769.09;10379731;28;20030;-22
2022/03/22 18:29:50;;;;;;;21.48;4.38;;;;;;;16.45;52.44;97803.00;10378767;28;20401;-22
2022/03/22 18:34:51;;;;;;;5.97;3.53;;;;;;;16.52;51.23;97804.88;10382728;28;21437;-22
2022/03/22 18:39:51;;;;;;;5.18;2.95;;;;;;;16.51;51.18;97822.53;10378837;28;20053;-23
2022/03/22 18:44:52;;;;;;;7.32;3.75;;;;;;;16.49;50.93;97817.44;10387178;28;20069;-22
2022/03/22 18:49:52;;;;;;;4.80;3.58;;;;;;;16.49;50.62;97824.16;10390966;28;20055;-22
2022/03/22 18:54:53;;;;;;;6.10;3.23;;;;;;;16.47;50.66;97823.28;10394234;28;20057;-22
2022/03/22 18:59:54;;;;;;;7.18;3.17;;;;;;;16.49;50.86;97819.09;10389255;28;20354;-22
2022/03/22 19:04:56;;;;;;;6.47;3.35;;;;;;;16.48;50.71;97833.44;10383800;28;20394;-22
2022/03/22 19:09:57;;;;;;;5.53;3.15;;;;;;;16.50;50.76;97830.94;10382629;28;20041;-21
2022/03/22 19:14:57;;;;;;;4.27;2.77;;;;;;;16.48;50.75;97832.56;10385171;28;20038;-21
2022/03/22 19:19:57;;;;;;;3.97;2.70;;;;;;;16.48;50.78;97843.56;10381161;28;20041;-21
2022/03/22 19:24:58;;;;;;;15.23;4.33;;;;;;;16.56;54.34;97839.53;10387955;28;20300;-21
2022/03/22 19:29:59;;;;;;;10.73;4.22;;;;;;;16.62;54.04;97844.72;10383771;28;20037;-21
2022/03/22 19:34:59;;;;;;;10.95;3.78;;;;;;;16.58;54.20;97842.97;10385880;28;20120;-21
2022/03/22 19:39:59;;;;;;;7.05;3.22;;;;;;;16.53;51.93;97839.44;10387336;28;20080;-21
2022/03/22 19:45:00;;;;;;;6.43;3.10;;;;;;;16.51;50.79;97843.63;10374156;28;20096;-21
2022/03/22 19:50:00;;;;;;;9.20;3.88;;;;;;;16.50;51.83;97846.09;10376550;28;20025;-21
2022/03/22 19:55:01;;;;;;;5.60;3.40;;;;;;;16.50;51.59;97848.63;10382749;28;20386;-21
2022/03/22 20:00:03;;;;;;;8.60;3.80;;;;;;;16.49;52.92;97842.72;10380321;28;20034;-21
2022/03/22 20:05:14;;;;;;;6.15;3.60;;;;;;;16.48;51.84;97840.16;10382902;28;20091;-21
2022/03/22 20:10:15;;;;;;;5.68;3.67;;;;;;;16.50;52.32;97839.38;10380218;28;20069;-21
2022/03/22 20:15:16;;;;;;;5.13;3.10;;;;;;;16.48;50.95;97837.63;10376428;28;20108;-21
2022/03/22 20:20:17;;;;;;;6.22;3.10;;;;;;;16.48;51.99;97835.97;10380237;28;20603;-21
2022/03/22 20:25:18;;;;;;;9.32;3.90;;;;;;;16.51;51.92;97837.69;10375950;28;20049;-21
2022/03/22 20:30:18;;;;;;;13.75;5.00;;;;;;;16.61;53.34;97844.72;10379676;28;20049;-22
2022/03/22 20:35:21;;;;;;;9.35;4.80;;;;;;;16.62;53.96;97839.69;10379231;28;20034;-21
2022/03/22 20:40:22;;;;;;;11.15;4.30;;;;;;;16.57;53.07;97848.84;10375650;28;20103;-21
2022/03/22 20:45:23;;;;;;;6.18;3.25;;;;;;;16.51;51.10;97843.63;10374471;28;20033;-21
2022/03/22 20:50:23;;;;;;;6.75;3.65;;;;;;;16.51;51.63;97847.81;10383184;28;20045;-21
2022/03/22 20:55:24;;;;;;;5.93;4.00;;;;;;;16.55;51.20;97852.97;10378647;28;20033;-21
2022/03/22 21:00:24;;;;;;;8.40;4.27;;;;;;;16.56;51.62;97857.25;10381940;28;20036;-22
2022/03/22 21:05:25;;;;;;;6.05;3.33;;;;;;;16.51;51.02;97851.19;10375424;28;20065;-22
2022/03/22 21:10:26;;;;;;;4.90;3.05;;;;;;;16.53;51.14;97849.56;10389506;28;20041;-21
2022/03/22 21:15:26;;;;;;;6.70;3.73;;;;;;;16.59;51.33;97842.13;10382230;28;20041;-22
2022/03/22 21:20:27;;;;;;;4.47;3.23;;;;;;;16.61;51.11;97847.25;10374727;28;20284;-22
2022/03/22 21:25:27;;;;;;;7.47;3.73;;;;;;;16.57;51.46;97841.25;10387135;28;20064;-22
2022/03/22 21:30:27;;;;;;;10.27;5.97;;;;;;;16.66;53.68;97851.59;10380495;28;20768;-21
2022/03/22 21:35:28;;;;;;;15.38;6.93;;;;;;;16.65;53.71;97852.41;10379107;28;20528;-21
2022/03/22 21:40:28;;;;;;;9.83;4.93;;;;;;;16.69;52.08;97843.22;10383992;28;20034;-22
2022/03/22 21:45:29;;;;;;;8.10;4.07;;;;;;;16.66;51.42;97846.53;10385219;28;20034;-21
2022/03/22 21:50:29;;;;;;;5.43;3.72;;;;;;;16.64;51.00;97838.06;10383910;28;20038;-21
2022/03/22 21:55:30;;;;;;;6.20;3.70;;;;;;;16.62;51.20;97847.25;10386894;28;20405;-21
2022/03/22 22:00:31;;;;;;;6.95;3.50;;;;;;;16.60;51.38;97833.72;10384037;28;20318;-21
2022/03/22 22:05:32;;;;;;;6.25;3.53;;;;;;;16.61;50.96;97840.50;10389661;28;20088;-21
2022/03/22 22:10:32;;;;;;;7.53;3.87;;;;;;;16.60;50.97;97838.78;10383619;28;20468;-22
2022/03/22 22:15:34;;;;;;;7.50;4.13;;;;;;;16.59;50.81;97842.13;10390708;28;20393;-21
2022/03/22 22:20:35;;;;;;;7.90;3.65;;;;;;;16.59;50.86;97838.75;10392127;28;20045;-21
2022/03/22 22:25:35;;;;;;;7.80;4.23;;;;;;;16.58;50.85;97837.91;10389858;28;20490;-21
2022/03/22 22:30:35;;;;;;;13.38;4.97;;;;;;;16.59;52.22;97831.16;10398461;28;20281;-21
2022/03/22 22:35:36;;;;;;;8.17;4.30;;;;;;;16.60;52.25;97832.91;10390430;28;20033;-21
2022/03/22 22:40:36;;;;;;;8.03;4.37;;;;;;;16.60;51.59;97831.19;10387309;28;20029;-21
2022/03/22 22:45:37;;;;;;;5.45;3.47;;;;;;;16.59;51.31;97834.56;10393292;28;20120;-22
2022/03/22 22:50:37;;;;;;;6.70;3.60;;;;;;;16.58;50.84;97827.78;10385081;28;20034;-22
2022/03/22 22:55:40;;;;;;;6.22;3.65;;;;;;;16.54;50.81;97830.19;10390670;28;20054;-21
2022/03/22 23:00:57;;;;;;;6.22;3.33;;;;;;;16.57;51.15;97832.78;10388881;28;20037;-22
2022/03/22 23:05:59;;;;;;;5.32;3.13;;;;;;;16.55;51.07;97831.91;10399572;28;20440;-22
2022/03/22 23:10:59;;;;;;;5.10;3.47;;;;;;;16.54;50.59;97828.50;10386568;28;20037;-21
2022/03/22 23:16:00;;;;;;;6.57;3.80;;;;;;;16.55;50.71;97824.31;10389835;28;20021;-21
2022/03/22 23:21:01;;;;;;;6.90;3.47;;;;;;;16.54;51.11;97818.41;10381469;28;20045;-22
2022/03/22 23:26:02;;;;;;;5.70;3.40;;;;;;;16.53;50.61;97815.84;10385186;28;20520;-22
2022/03/22 23:31:03;;;;;;;6.55;4.15;;;;;;;16.53;52.06;97820.91;10388099;28;20080;-21
2022/03/22 23:36:04;;;;;;;6.40;4.07;;;;;;;16.58;51.97;97820.22;10382331;28;20334;-21
2022/03/22 23:41:04;;;;;;;6.82;4.80;;;;;;;16.58;51.46;97819.34;10384175;28;20432;-22
2022/03/22 23:46:05;;;;;;;4.83;3.23;;;;;;;16.55;50.66;97825.16;10391479;28;20034;-22
2022/03/22 23:51:05;;;;;;;3.60;2.95;;;;;;;16.55;51.03;97815.06;10369571;28;20045;-22
2022/03/22 23:56:06;;;;;;;3.07;2.60;;;;;;;16.55;50.62;97812.53;10379573;28;20051;-21
